Nearby METAR Reports

 

KW29 - Stevensville, Maryland, USA
Distance from station: SSW 13mi, 21km
Updated: Mon, 22-Jul-2019 1:20am EDT
Clear
Clear
 Wind from W
Wind: W 5 mph , 7 km/h
Temperature: 82°F , 28°C
Heat Index: 86°F , 30°C
Dew Point: 70°F , 21°C
Humidity: 66%
Barometer: 29.87 inHg , 1011.5 hPa
Clouds: Clear
Visibility: 10 miles , 16 km
2019/07/22 05:20 KW29 220520Z AUTO 27004KT 10SM CLR 28/21 A2987 RMK AO2
KMTN - Baltimore/Martin, Maryland, USA
Distance from station: NW 13mi, 22km
Updated: Mon, 22-Jul-2019 1:21am EDT
Partly cloudy
Partly cloudy
 Wind from calm
Wind: Calm
Temperature: 81°F , 27°C
Heat Index: 85°F , 29°C
Dew Point: 72°F , 22°C
Humidity: 74%
Barometer: 29.89 inHg , 1012.2 hPa
Clouds: Partly cloudy
Visibility: 10 miles , 16 km
Cloud details: Partly cloudy 8000 ft
2019/07/22 05:21 KMTN 220521Z AUTO 00000KT 10SM SCT080 27/22 A2989 RMK AO2
 
KNAK - Annapolis/Naval, Maryland, USA
Distance from station: SW 18mi, 28km
Updated: Mon, 22-Jul-2019 12:54am EDT
Clear
Clear
 Wind from W
Wind: W 3 mph , 6 km/h
Temperature: 84°F , 29°C
Heat Index: 87°F , 31°C
Dew Point: 68°F , 20°C
Humidity: 58%
Barometer: 29.88 inHg , 1011.9 hPa
Clouds: Clear
Visibility: 10 miles , 16 km
2019/07/22 04:54 KNAK 220454Z AUTO 28003KT 10SM CLR 29/20 A2988 RMK AO2 SLP119 T02890200 403830289
KAPG - Aberdeen/Phillip, Maryland, USA
Distance from station: NNE 21mi, 34km
Updated: Fri, 19-Jul-2019 7:51pm EDT
NOT Current
Clear
Clear
 Wind from SW
Wind: SW 5 mph , 7 km/h
Temperature: 88°F , 31°C
Heat Index: 100°F , 38°C
Dew Point: 77°F , 25°C
Humidity: 70%
Barometer: 29.88 inHg , 1011.9 hPa
Clouds: Clear
Visibility: 7 miles , 11 km
2019/07/19 23:51 KAPG 192351Z 22004KT 7SM CLR 31/25 A2988 RMK SLP121 55006
 
KDMH - Baltimore/Dwntwn, Maryland, USA
Distance from station: WNW 21mi, 34km
Updated: Mon, 22-Jul-2019 12:54am EDT

 
Temperature: 81°F , 27°C
Heat Index: 85°F , 29°C
Dew Point: 70°F , 21°C
Humidity: 70%
Barometer: 29.88 inHg , 1011.9 hPa
2019/07/22 04:54 KDMH 220454Z AUTO 27/21 A2988 RMK AO1 SLP118 T02720211 403830267
KBWI - Balto/Wash Intl, Maryland, USA
Distance from station: W 23mi, 37km
Updated: Mon, 22-Jul-2019 12:54am EDT
Overcast
Overcast
 Wind from WSW
Wind: WSW 7 mph , 11 km/h
Temperature: 81°F , 27°C
Heat Index: 85°F , 29°C
Dew Point: 70°F , 21°C
Humidity: 70%
Barometer: 29.88 inHg , 1011.9 hPa
Clouds: Overcast
Visibility: 10 miles , 16 km
Cloud details: Few Clouds 8500 ft
Mostly cloudy 20000 ft
Overcast 25000 ft
2019/07/22 04:54 KBWI 220454Z 25006KT 10SM FEW085 BKN200 OVC250 27/21 A2988 RMK AO2 SLP116 T02670206 403780256
 
KESN - Easton/Newnam, Maryland, USA
Distance from station: SSE 27mi, 44km
Updated: Mon, 22-Jul-2019 1:40am EDT
Clear
Clear
 Wind from calm
Wind: Calm
Temperature: 81°F , 27°C
Heat Index: 87°F , 31°C
Dew Point: 75°F , 24°C
Humidity: 84%
Barometer: 29.92 inHg , 1013.2 hPa
Clouds: Clear
Visibility: 10 miles , 16 km
2019/07/22 05:40 KESN 220540Z AUTO 00000KT 10SM CLR 27/24 A2992 RMK AO2 T02710236
KFME - Fort Meade, Maryland, USA
Distance from station: WSW 28mi, 45km
Updated: Mon, 22-Jul-2019 1:21am EDT
Clear
Clear
 Wind from SSW
Wind: SSW 3 mph , 6 km/h
Temperature: 73°F , 23°C
Dew Point: 70°F , 21°C
Humidity: 89%
Barometer: 29.92 inHg , 1013.2 hPa
Clouds: Clear
Visibility: 10 miles , 16 km
2019/07/22 05:21 KFME 220521Z AUTO 21003KT 10SM CLR 23/21 A2992 RMK AO1
 
KCGS - College Park, Maryland, USA
Distance from station: WSW 38mi, 61km
Updated: Mon, 22-Jul-2019 1:22am EDT
Clear
Clear
 Wind from calm
Wind: Calm
Temperature: 79°F , 26°C
Dew Point: 66°F , 19°C
Humidity: 65%
Barometer: 29.89 inHg , 1012.2 hPa
Clouds: Clear
Visibility: 10 miles , 16 km
2019/07/22 05:22 KCGS 220522Z AUTO 00000KT 10SM CLR 26/19 A2989 RMK AO1 T02560185
KADW - Andrews Afb, Maryland, USA
Distance from station: SW 41mi, 66km
Updated: Mon, 22-Jul-2019 12:56am EDT
Clear
Clear
 Wind from WNW
Wind: WNW 5 mph , 7 km/h
Temperature: 81°F , 27°C
Heat Index: 84°F , 29°C
Dew Point: 68°F , 20°C
Humidity: 66%
Barometer: 29.90 inHg , 1012.5 hPa
Clouds: Clear
Visibility: 10 miles , 16 km
2019/07/22 04:56 KADW 220456Z AUTO 29004KT 10SM CLR 27/20 A2990 RMK AO2 SLP129 T02670200 403740250 $
 
KDOV - Dover Afb, Delaware, USA
Distance from station: E 42mi, 68km
Updated: Mon, 22-Jul-2019 12:56am EDT
Clear
Clear
 Wind from WNW
Wind: WNW 9 mph , 15 km/h
Temperature: 82°F , 28°C
Heat Index: 86°F , 30°C
Dew Point: 72°F , 22°C
Humidity: 70%
Barometer: 29.86 inHg , 1011.2 hPa
Clouds: Clear
Visibility: 10 miles , 16 km
2019/07/22 04:56 KDOV 220456Z AUTO 30008KT 10SM CLR 28/22 A2986 RMK AO2 SLP114 T02760223 403670273 $
KCGE - Cambridge-Dorch, Maryland, USA
Distance from station: SSE 45mi, 73km
Updated: Mon, 22-Jul-2019 1:25am EDT
Clear
Clear
 Wind from WSW
Wind: WSW 3 mph , 6 km/h
Temperature: 79°F , 26°C
Dew Point: 75°F , 24°C
Humidity: 89%
Barometer: 29.88 inHg , 1011.9 hPa
Clouds: Clear
Visibility: 10 miles , 16 km
2019/07/22 05:25 KCGE 220525Z AUTO 24003KT 10SM CLR 26/24 A2988 RMK A01
 
KDCA - Washington/Natl, Washington D.c., USA
Distance from station: WSW 47mi, 76km
Updated: Mon, 22-Jul-2019 12:52am EDT
Mostly cloudy
Mostly cloudy
 Wind from N
Wind: N 6 mph , 9 km/h
Temperature: 81°F , 27°C
Heat Index: 84°F , 29°C
Dew Point: 68°F , 20°C
Humidity: 66%
Barometer: 29.90 inHg , 1012.5 hPa
Clouds: Mostly cloudy
Visibility: 10 miles , 16 km
Cloud details: Mostly cloudy 16000 ft
Mostly cloudy 25000 ft
2019/07/22 04:52 KDCA 220452Z 01005KT 10SM BKN160 BKN250 27/20 A2990 RMK AO2 SLP124 T02670200 403720267
KGAI - Gaithersburg, Maryland, USA
Distance from station: W 49mi, 78km
Updated: Mon, 22-Jul-2019 12:56am EDT
Clear
Clear
 Wind from calm
Wind: Calm
Temperature: 73°F , 23°C
Dew Point: 70°F , 21°C
Humidity: 89%
Barometer: 29.92 inHg , 1013.2 hPa
Clouds: Clear
Visibility: 10 miles , 16 km
2019/07/22 04:56 KGAI 220456Z AUTO 00000KT 10SM CLR 23/21 A2992 RMK AO2 SLP139 T02330206 403610233 PNO $
 
KILG - Wilmington, Delaware, USA
Distance from station: NE 49mi, 79km
Updated: Mon, 22-Jul-2019 12:51am EDT
Clear
Clear
 Wind from WNW
Wind: WNW 3 mph , 6 km/h
Temperature: 79°F , 26°C
Dew Point: 72°F , 22°C
Humidity: 79%
Barometer: 29.88 inHg , 1011.9 hPa
Clouds: Clear
Visibility: 10 miles , 16 km
2019/07/22 04:51 KILG 220451Z AUTO 30003KT 10SM CLR 26/22 A2988 RMK AO2 SLP117 T02610222 403610250 $
KDMW - Carroll Cnty, Maryland, USA
Distance from station: NW 50mi, 80km
Updated: Mon, 22-Jul-2019 1:20am EDT
Clear
Clear
 Wind from calm
Wind: Calm
Temperature: 79°F , 26°C
Dew Point: 72°F , 22°C
Humidity: 79%
Barometer: 29.90 inHg , 1012.5 hPa
Clouds: Clear
Visibility: 10 miles , 16 km
2019/07/22 05:20 KDMW 220520Z AUTO 00000KT 10SM CLR 26/22 A2990 RMK AO2